Time;durP1;ratioP1;P1;durP2;ratioP2;P2;SDS_P1;SDS_P2;PMS_P1;PMS_P2;Temp;Humidity;BMP_temperature;BMP_pressure;BME280_temperature;BME280_humidity;BME280_pressure;Samples;Min_cycle;Max_cycle;Signal;HPM_P1;HPM_P2
2021/05/19 00:00:26;;;;;;;0.50;0.50;;;10.80;99.90;;;;;;4446019;32;20073;-65
2021/05/19 00:02:52;;;;;;;0.60;0.60;;;10.70;99.90;;;;;;4446192;32;20517;-65
2021/05/19 00:05:17;;;;;;;0.60;0.60;;;10.50;99.90;;;;;;4445394;32;20096;-64
2021/05/19 00:07:43;;;;;;;22.80;2.60;;;10.30;99.90;;;;;;4444322;32;20077;-65
2021/05/19 00:10:09;;;;;;;0.85;0.82;;;10.30;99.90;;;;;;4445127;32;20467;-65
2021/05/19 00:12:35;;;;;;;1.00;0.90;;;10.30;99.90;;;;;;4444826;32;20111;-65
2021/05/19 00:15:02;;;;;;;0.55;0.55;;;10.40;99.90;;;;;;4443665;32;20061;-64
2021/05/19 00:17:28;;;;;;;1.37;0.65;;;10.40;99.90;;;;;;4443202;32;20123;-65
2021/05/19 00:19:53;;;;;;;0.50;0.50;;;10.40;99.90;;;;;;4444080;32;20084;-65
2021/05/19 00:22:19;;;;;;;0.37;0.37;;;10.30;99.90;;;;;;4444765;32;20081;-65
2021/05/19 00:24:44;;;;;;;0.47;0.47;;;10.20;99.90;;;;;;4445746;32;20069;-65
2021/05/19 00:27:10;;;;;;;0.50;0.50;;;10.20;99.90;;;;;;4444657;32;20069;-65
2021/05/19 00:29:36;;;;;;;0.60;0.60;;;10.20;99.90;;;;;;4444367;32;20431;-65
2021/05/19 00:32:02;;;;;;;0.70;0.70;;;10.10;99.90;;;;;;4446287;32;20077;-65
2021/05/19 00:34:28;;;;;;;2.00;0.57;;;10.00;99.90;;;;;;4445349;32;20111;-65
2021/05/19 00:36:53;;;;;;;0.55;0.55;;;9.90;99.90;;;;;;4443283;32;20089;-65
2021/05/19 00:39:19;;;;;;;0.40;0.40;;;10.00;99.90;;;;;;4446498;32;20155;-65
2021/05/19 00:41:44;;;;;;;0.90;0.45;;;10.00;99.90;;;;;;4445124;32;20073;-65
2021/05/19 00:44:14;;;;;;;0.35;0.35;;;10.00;99.90;;;;;;4444271;32;20089;-65
2021/05/19 00:46:48;;;;;;;0.43;0.43;;;9.90;99.90;;;;;;4445467;32;20068;-65
2021/05/19 00:49:14;;;;;;;0.95;0.80;;;10.00;99.90;;;;;;4444684;32;20142;-64
2021/05/19 00:51:40;;;;;;;7.32;0.47;;;9.90;99.90;;;;;;4444332;32;20061;-65
2021/05/19 00:54:05;;;;;;;0.37;0.37;;;9.70;99.90;;;;;;4444670;32;20082;-64
2021/05/19 00:56:31;;;;;;;0.90;0.57;;;9.70;99.90;;;;;;4445668;32;20085;-65
2021/05/19 00:58:59;;;;;;;0.50;0.50;;;9.90;99.90;;;;;;4442443;32;20085;-64
2021/05/19 01:01:25;;;;;;;0.40;0.40;;;9.80;99.90;;;;;;4443792;32;20081;-65
2021/05/19 01:03:52;;;;;;;1.20;0.85;;;9.90;99.90;;;;;;4444505;32;20498;-63
2021/05/19 01:06:25;;;;;;;0.77;0.77;;;9.80;99.90;;;;;;4444188;32;20404;-64
2021/05/19 01:09:51;;;;;;;0.60;0.60;;;9.90;99.90;;;;;;4444156;32;20435;-64
2021/05/19 01:11:37;;;;;;;0.30;0.30;;;9.70;99.90;;;;;;4442049;32;20086;-63
2021/05/19 01:14:03;;;;;;;0.50;0.50;;;9.60;99.90;;;;;;4444484;32;20065;-66
2021/05/19 01:16:28;;;;;;;0.45;0.45;;;9.70;99.90;;;;;;4443651;32;20077;-64
2021/05/19 01:18:54;;;;;;;0.40;0.40;;;9.70;99.90;;;;;;4444819;32;20093;-64
2021/05/19 01:21:22;;;;;;;0.70;0.70;;;9.80;99.90;;;;;;4442720;32;20073;-66
2021/05/19 01:23:48;;;;;;;0.45;0.45;;;9.70;99.90;;;;;;4445115;32;20064;-66
2021/05/19 01:26:14;;;;;;;0.32;0.32;;;9.70;99.90;;;;;;4443880;32;20267;-66
2021/05/19 01:28:41;;;;;;;1.67;0.73;;;9.90;99.90;;;;;;4443951;32;20141;-65
2021/05/19 01:31:08;;;;;;;2.60;1.08;;;9.90;99.90;;;;;;4443991;32;20116;-65
2021/05/19 01:33:34;;;;;;;0.28;0.28;;;9.90;99.90;;;;;;4444379;32;20081;-66
2021/05/19 01:36:00;;;;;;;0.52;0.47;;;9.90;99.90;;;;;;4443741;32;20061;-66
2021/05/19 01:38:25;;;;;;;0.47;0.47;;;10.00;99.90;;;;;;4444436;32;20069;-66
2021/05/19 01:40:51;;;;;;;0.50;0.50;;;10.10;99.90;;;;;;4443793;32;20389;-64
2021/05/19 01:43:16;;;;;;;1.05;0.55;;;10.00;99.90;;;;;;4443469;32;20062;-66
2021/05/19 01:45:41;;;;;;;0.50;0.50;;;10.20;99.90;;;;;;4444013;32;20069;-66
2021/05/19 01:48:14;;;;;;;0.85;0.85;;;10.20;99.90;;;;;;4444656;32;20065;-66
2021/05/19 01:50:42;;;;;;;1.02;0.93;;;10.20;99.90;;;;;;4444492;32;20069;-66
2021/05/19 01:53:08;;;;;;;1.15;0.60;;;10.30;99.90;;;;;;4443724;32;20120;-66
2021/05/19 01:55:34;;;;;;;0.45;0.45;;;10.30;99.90;;;;;;4445090;32;20423;-66
2021/05/19 01:57:59;;;;;;;1.12;0.80;;;10.40;99.90;;;;;;4443384;32;20122;-66
2021/05/19 02:00:27;;;;;;;1.08;0.85;;;10.40;99.90;;;;;;4443216;32;20073;-64
2021/05/19 02:03:08;;;;;;;0.62;0.43;;;10.50;99.90;;;;;;4443848;32;20077;-65
2021/05/19 02:05:36;;;;;;;2.05;0.80;;;10.50;99.90;;;;;;4443650;32;20413;-65
2021/05/19 02:08:05;;;;;;;0.40;0.40;;;10.30;99.90;;;;;;4443812;32;20065;-66
2021/05/19 02:10:31;;;;;;;0.88;0.88;;;10.30;99.90;;;;;;4443805;32;20108;-66
2021/05/19 02:13:00;;;;;;;0.32;0.32;;;10.40;99.90;;;;;;4443888;32;20097;-65
2021/05/19 02:15:26;;;;;;;0.95;0.80;;;10.50;99.90;;;;;;4444419;32;20074;-65
2021/05/19 02:17:51;;;;;;;0.47;0.47;;;10.50;99.90;;;;;;4443954;32;20094;-66
2021/05/19 02:20:19;;;;;;;0.40;0.40;;;10.60;99.90;;;;;;4444226;32;20126;-66
2021/05/19 02:22:47;;;;;;;0.62;0.55;;;10.50;99.90;;;;;;4444406;32;20064;-66
2021/05/19 02:25:12;;;;;;;0.52;0.52;;;10.50;99.90;;;;;;4446922;32;20062;-66
2021/05/19 02:27:39;;;;;;;3.30;0.80;;;10.60;99.90;;;;;;4446499;32;20525;-65
2021/05/19 02:30:06;;;;;;;0.32;0.32;;;10.60;99.90;;;;;;4446285;32;20069;-65
2021/05/19 02:32:31;;;;;;;0.32;0.32;;;10.60;99.90;;;;;;4432858;32;20073;-65
2021/05/19 02:34:57;;;;;;;1.60;0.52;;;10.70;99.90;;;;;;4445445;32;20432;-64
2021/05/19 02:37:22;;;;;;;0.65;0.65;;;10.70;99.90;;;;;;4446865;32;20061;-64
2021/05/19 02:39:48;;;;;;;0.88;0.73;;;10.70;99.90;;;;;;4446654;32;20076;-65
2021/05/19 02:42:13;;;;;;;0.60;0.60;;;10.70;99.90;;;;;;4444513;32;20089;-64
2021/05/19 02:44:39;;;;;;;0.35;0.35;;;10.70;99.90;;;;;;4446462;32;20112;-64
2021/05/19 02:47:05;;;;;;;0.57;0.52;;;10.70;99.90;;;;;;4431514;32;20073;-64
2021/05/19 02:49:31;;;;;;;0.40;0.40;;;10.70;99.90;;;;;;4446181;32;20073;-65
2021/05/19 02:51:56;;;;;;;0.32;0.32;;;10.70;99.90;;;;;;4446687;32;20061;-65
2021/05/19 02:54:22;;;;;;;0.32;0.32;;;10.70;99.90;;;;;;4446231;32;20073;-65
2021/05/19 02:56:47;;;;;;;2.28;0.60;;;10.70;99.90;;;;;;4445447;32;20065;-64
2021/05/19 02:59:13;;;;;;;0.30;0.30;;;10.60;99.90;;;;;;4445334;32;20112;-63
2021/05/19 03:01:39;;;;;;;0.68;0.65;;;10.50;99.90;;;;;;4445938;32;20143;-64
2021/05/19 03:04:05;;;;;;;0.32;0.32;;;10.50;99.90;;;;;;4446047;32;20156;-65
2021/05/19 03:06:31;;;;;;;0.70;0.70;;;10.40;99.90;;;;;;4445573;32;20061;-64
2021/05/19 03:08:56;;;;;;;0.75;0.50;;;10.60;99.90;;;;;;4446532;32;20064;-65
2021/05/19 03:11:22;;;;;;;0.52;0.52;;;10.70;99.90;;;;;;4446955;32;20078;-65
2021/05/19 03:13:48;;;;;;;1.50;0.60;;;10.70;99.90;;;;;;4446042;32;20065;-65
2021/05/19 03:16:13;;;;;;;0.45;0.45;;;10.70;99.90;;;;;;4446143;32;20069;-65
2021/05/19 03:18:39;;;;;;;0.30;0.30;;;10.70;99.90;;;;;;4446124;32;20112;-64
2021/05/19 03:21:05;;;;;;;0.30;0.30;;;10.70;99.90;;;;;;4447154;32;20136;-65
2021/05/19 03:23:31;;;;;;;0.30;0.30;;;10.70;99.90;;;;;;4445517;32;20069;-64
2021/05/19 03:25:57;;;;;;;0.88;0.73;;;10.80;99.90;;;;;;4445827;32;20124;-64
2021/05/19 03:28:23;;;;;;;0.57;0.57;;;10.80;99.90;;;;;;4445520;32;20057;-65
2021/05/19 03:30:49;;;;;;;0.75;0.75;;;10.80;99.90;;;;;;4446304;32;20092;-65
2021/05/19 03:33:16;;;;;;;0.40;0.40;;;10.80;99.90;;;;;;4431729;32;20459;-65
2021/05/19 03:35:41;;;;;;;0.45;0.45;;;10.80;99.90;;;;;;4445252;32;20132;-64
2021/05/19 03:38:07;;;;;;;0.47;0.47;;;10.80;99.90;;;;;;4444960;32;20532;-64
2021/05/19 03:40:33;;;;;;;0.40;0.40;;;10.90;99.90;;;;;;4445557;32;20123;-64
2021/05/19 03:42:59;;;;;;;0.60;0.60;;;10.90;99.90;;;;;;4444746;32;20053;-64
2021/05/19 03:45:25;;;;;;;0.88;0.50;;;10.80;99.90;;;;;;4446491;32;20072;-64
2021/05/19 03:47:53;;;;;;;1.20;0.50;;;10.90;99.90;;;;;;4443009;32;20164;-65
2021/05/19 03:50:20;;;;;;;0.55;0.52;;;10.80;99.90;;;;;;4446694;32;20097;-64
2021/05/19 03:52:47;;;;;;;0.55;0.55;;;10.80;99.90;;;;;;4444214;32;20144;-65
2021/05/19 03:55:14;;;;;;;0.40;0.40;;;10.90;99.90;;;;;;4444600;32;20065;-64
2021/05/19 03:57:40;;;;;;;0.30;0.30;;;10.90;99.90;;;;;;4446408;32;20060;-64
2021/05/19 04:00:11;;;;;;;2.00;0.68;;;10.90;99.90;;;;;;4445924;32;20080;-64
2021/05/19 04:02:36;;;;;;;0.50;0.50;;;11.00;99.90;;;;;;4444461;32;20585;-64
2021/05/19 04:05:02;;;;;;;0.60;0.60;;;11.00;99.90;;;;;;4444869;32;20138;-64
2021/05/19 04:07:28;;;;;;;0.45;0.45;;;11.00;99.90;;;;;;4444387;32;20120;-64
2021/05/19 04:09:53;;;;;;;0.40;0.40;;;11.00;99.90;;;;;;4446108;32;20080;-64
2021/05/19 04:12:19;;;;;;;1.08;0.98;;;11.10;99.90;;;;;;4445657;32;20056;-64
2021/05/19 04:14:44;;;;;;;1.23;0.50;;;11.10;99.90;;;;;;4446334;32;20077;-65
2021/05/19 04:17:10;;;;;;;3.50;1.25;;;11.00;99.90;;;;;;4444888;32;20416;-64
2021/05/19 04:19:35;;;;;;;0.40;0.40;;;11.00;99.90;;;;;;4444938;32;20076;-64
2021/05/19 04:22:01;;;;;;;0.47;0.47;;;11.00;99.90;;;;;;4436635;32;20508;-65
2021/05/19 04:24:26;;;;;;;2.55;0.52;;;10.90;99.90;;;;;;4430255;32;20066;-65
2021/05/19 04:26:52;;;;;;;0.60;0.60;;;10.90;99.90;;;;;;4427062;32;20061;-64
2021/05/19 04:29:18;;;;;;;0.30;0.30;;;11.00;99.90;;;;;;4444123;32;20177;-64
2021/05/19 04:31:44;;;;;;;2.10;0.62;;;11.10;99.90;;;;;;4445642;32;20110;-65
2021/05/19 04:34:10;;;;;;;0.40;0.40;;;11.10;99.90;;;;;;4446038;32;20072;-64
2021/05/19 04:36:35;;;;;;;0.55;0.55;;;11.10;99.90;;;;;;4443725;32;20070;-65
2021/05/19 04:39:01;;;;;;;0.50;0.50;;;11.10;99.90;;;;;;4445956;32;20069;-65
2021/05/19 04:41:27;;;;;;;0.40;0.40;;;11.10;99.90;;;;;;4444262;32;20073;-65
2021/05/19 04:43:53;;;;;;;1.35;0.45;;;11.20;99.90;;;;;;4444096;32;20484;-65
2021/05/19 04:46:20;;;;;;;1.12;0.35;;;11.20;99.90;;;;;;4442580;32;20116;-65
2021/05/19 04:48:46;;;;;;;0.50;0.50;;;11.30;99.90;;;;;;4445667;32;20529;-63
2021/05/19 04:51:11;;;;;;;0.77;0.77;;;11.30;99.90;;;;;;4444767;32;20123;-64
2021/05/19 04:53:37;;;;;;;0.80;0.60;;;11.30;99.90;;;;;;4443647;32;20121;-64
2021/05/19 04:56:03;;;;;;;0.37;0.37;;;11.40;99.90;;;;;;4446211;32;20061;-64
2021/05/19 04:58:28;;;;;;;11.73;1.92;;;11.30;99.90;;;;;;4444888;32;20080;-65
2021/05/19 05:00:54;;;;;;;0.40;0.40;;;11.30;99.90;;;;;;4440920;32;20730;-64
2021/05/19 05:03:20;;;;;;;0.88;0.50;;;11.30;99.90;;;;;;4432517;32;20073;-65
2021/05/19 05:05:46;;;;;;;0.40;0.40;;;11.20;99.90;;;;;;4438812;32;20078;-65
2021/05/19 05:08:12;;;;;;;1.02;0.77;;;11.20;99.90;;;;;;4441665;32;20505;-64
2021/05/19 05:10:37;;;;;;;0.62;0.62;;;11.30;99.90;;;;;;4444053;32;20127;-65
2021/05/19 05:13:03;;;;;;;2.90;0.68;;;11.30;99.90;;;;;;4433267;32;20522;-66
2021/05/19 05:15:29;;;;;;;3.35;0.77;;;11.30;99.90;;;;;;4428972;32;20412;-65
2021/05/19 05:17:55;;;;;;;2.35;0.50;;;11.30;99.90;;;;;;4422016;32;20084;-65
2021/05/19 05:20:21;;;;;;;2.95;1.15;;;11.40;99.90;;;;;;4439438;32;20072;-64
2021/05/19 05:22:47;;;;;;;0.40;0.40;;;11.40;99.90;;;;;;4442063;32;20673;-65
2021/05/19 05:25:13;;;;;;;0.30;0.30;;;11.40;99.90;;;;;;4443545;32;20115;-64
2021/05/19 05:27:40;;;;;;;5.10;0.75;;;11.50;99.90;;;;;;4425182;32;20081;-65
2021/05/19 05:30:06;;;;;;;2.03;0.70;;;11.50;99.90;;;;;;4428332;32;20087;-65
2021/05/19 05:32:31;;;;;;;0.73;0.73;;;11.50;99.90;;;;;;4417489;32;20269;-65
2021/05/19 05:34:57;;;;;;;0.60;0.60;;;11.50;99.90;;;;;;4435795;32;20066;-64
2021/05/19 05:37:23;;;;;;;0.60;0.60;;;11.50;99.90;;;;;;4427503;32;20085;-65
2021/05/19 05:39:49;;;;;;;0.45;0.45;;;11.50;99.90;;;;;;4434744;32;20073;-65
2021/05/19 05:42:15;;;;;;;0.65;0.52;;;11.50;99.90;;;;;;4440344;32;20570;-65
2021/05/19 05:44:40;;;;;;;0.40;0.40;;;11.50;99.90;;;;;;4436143;32;20072;-66
2021/05/19 05:47:06;;;;;;;0.62;0.50;;;11.50;99.90;;;;;;4435709;32;20431;-65
2021/05/19 05:49:32;;;;;;;0.57;0.55;;;11.50;99.90;;;;;;4438644;32;20065;-66
2021/05/19 05:51:57;;;;;;;0.68;0.68;;;11.70;99.90;;;;;;4440570;32;20073;-66
2021/05/19 05:54:23;;;;;;;0.73;0.70;;;11.70;99.90;;;;;;4428439;32;20106;-66
2021/05/19 05:56:48;;;;;;;1.17;0.80;;;11.90;99.90;;;;;;4433337;32;20537;-66
2021/05/19 05:59:14;;;;;;;2.25;0.93;;;12.00;99.90;;;;;;4440137;32;20080;-66
2021/05/19 06:01:40;;;;;;;0.70;0.70;;;12.10;99.90;;;;;;4436228;32;20281;-66
2021/05/19 06:04:05;;;;;;;3.67;0.62;;;12.10;99.90;;;;;;4425685;32;20864;-66
2021/05/19 06:06:31;;;;;;;0.70;0.70;;;12.20;99.90;;;;;;4430423;32;20150;-65
2021/05/19 06:08:56;;;;;;;0.73;0.50;;;12.30;99.90;;;;;;4427054;32;20665;-65
2021/05/19 06:11:22;;;;;;;1.48;0.73;;;12.40;99.90;;;;;;4431922;32;20085;-65
2021/05/19 06:13:47;;;;;;;0.62;0.60;;;12.50;99.90;;;;;;4432974;32;20094;-64
2021/05/19 06:16:13;;;;;;;0.30;0.30;;;12.60;99.90;;;;;;4430999;32;20427;-65
2021/05/19 06:18:38;;;;;;;0.62;0.62;;;12.70;99.90;;;;;;4426065;32;20085;-65
2021/05/19 06:21:04;;;;;;;0.37;0.37;;;12.70;99.90;;;;;;4435060;32;20151;-65
2021/05/19 06:23:29;;;;;;;0.30;0.30;;;12.80;99.90;;;;;;4439420;32;20499;-65
2021/05/19 06:25:55;;;;;;;0.50;0.45;;;12.80;99.90;;;;;;4440318;32;20068;-65
2021/05/19 06:28:21;;;;;;;1.62;1.17;;;12.90;99.90;;;;;;4435507;32;20123;-64
2021/05/19 06:30:46;;;;;;;0.35;0.35;;;12.90;99.90;;;;;;4436215;32;20080;-65
2021/05/19 06:33:12;;;;;;;0.62;0.52;;;13.00;99.90;;;;;;4438133;32;20154;-65
2021/05/19 06:35:37;;;;;;;0.47;0.47;;;13.00;99.90;;;;;;4439349;32;20528;-66
2021/05/19 06:38:03;;;;;;;0.40;0.40;;;13.10;99.90;;;;;;4431779;32;20085;-65
2021/05/19 06:40:29;;;;;;;0.93;0.50;;;13.10;99.90;;;;;;4432460;32;20073;-65
2021/05/19 06:42:56;;;;;;;17.37;0.50;;;13.10;99.90;;;;;;4432032;32;20510;-65
2021/05/19 06:45:22;;;;;;;0.50;0.50;;;13.10;99.90;;;;;;4431630;32;20077;-64
2021/05/19 06:47:47;;;;;;;0.55;0.55;;;13.20;99.90;;;;;;4425018;32;20612;-64
2021/05/19 06:50:13;;;;;;;1.85;0.50;;;13.30;99.90;;;;;;4437693;32;20064;-65
2021/05/19 06:52:39;;;;;;;16.45;1.15;;;13.30;99.90;;;;;;4433304;32;20098;-65
2021/05/19 06:55:07;;;;;;;0.40;0.40;;;13.40;99.90;;;;;;4432229;32;20065;-65
2021/05/19 06:57:35;;;;;;;2.60;0.55;;;13.40;99.90;;;;;;4434615;32;20081;-65
2021/05/19 07:00:00;;;;;;;0.32;0.32;;;13.40;99.90;;;;;;4433412;32;20065;-66
2021/05/19 07:02:26;;;;;;;0.30;0.30;;;13.60;99.90;;;;;;4437400;32;21740;-65
2021/05/19 07:04:51;;;;;;;5.93;1.05;;;13.50;99.90;;;;;;4438766;32;20088;-65
2021/05/19 07:07:17;;;;;;;1.35;0.43;;;13.60;99.90;;;;;;4433944;32;20081;-64
2021/05/19 07:09:42;;;;;;;0.30;0.30;;;13.80;99.90;;;;;;4437721;32;20273;-65
2021/05/19 07:12:08;;;;;;;0.50;0.50;;;13.90;99.90;;;;;;4435938;32;20081;-64
2021/05/19 07:14:35;;;;;;;0.40;0.40;;;13.80;99.90;;;;;;4438797;32;20517;-64
2021/05/19 07:17:01;;;;;;;0.30;0.30;;;13.80;99.90;;;;;;4433872;32;20072;-64
2021/05/19 07:19:27;;;;;;;0.35;0.35;;;13.90;99.90;;;;;;4430769;32;20451;-65
2021/05/19 07:21:53;;;;;;;0.30;0.30;;;14.00;99.90;;;;;;4431546;32;20081;-64
2021/05/19 07:24:18;;;;;;;0.47;0.47;;;13.90;99.90;;;;;;4438800;32;20123;-65
2021/05/19 07:26:47;;;;;;;1.02;0.73;;;13.90;99.90;;;;;;4442348;32;20217;-65
2021/05/19 07:29:14;;;;;;;0.37;0.37;;;13.90;99.90;;;;;;4427070;32;20183;-65
2021/05/19 07:31:41;;;;;;;0.35;0.35;;;13.70;99.90;;;;;;4434331;32;20080;-65
2021/05/19 07:34:07;;;;;;;0.43;0.40;;;13.70;99.90;;;;;;4424441;32;20072;-65
2021/05/19 07:36:32;;;;;;;0.40;0.40;;;13.80;99.90;;;;;;4433728;32;20141;-65
2021/05/19 07:38:58;;;;;;;0.30;0.30;;;14.00;99.90;;;;;;4432337;32;20188;-65
2021/05/19 07:41:26;;;;;;;0.30;0.30;;;14.20;99.90;;;;;;4439804;32;20337;-65
2021/05/19 07:43:51;;;;;;;0.32;0.32;;;14.20;99.90;;;;;;4438321;32;20064;-64
2021/05/19 07:46:17;;;;;;;1.12;0.95;;;14.10;99.90;;;;;;4434246;32;20392;-64
2021/05/19 07:48:43;;;;;;;9.23;0.95;;;14.20;99.90;;;;;;4441671;32;20065;-64
2021/05/19 07:51:09;;;;;;;0.30;0.30;;;14.20;99.90;;;;;;4431889;32;20086;-65
2021/05/19 07:53:35;;;;;;;0.50;0.50;;;14.20;99.90;;;;;;4437550;32;20186;-64
2021/05/19 07:56:07;;;;;;;0.40;0.40;;;14.20;99.90;;;;;;4439408;32;20065;-65
2021/05/19 07:58:37;;;;;;;0.75;0.40;;;14.20;99.90;;;;;;4439375;32;20073;-65
2021/05/19 08:01:22;;;;;;;0.30;0.30;;;14.10;99.90;;;;;;4439103;32;20514;-64
2021/05/19 08:03:50;;;;;;;0.32;0.32;;;14.30;99.90;;;;;;4441088;32;20072;-64
2021/05/19 08:06:16;;;;;;;0.45;0.45;;;14.40;99.90;;;;;;4443766;32;20138;-64
2021/05/19 08:08:41;;;;;;;1.02;0.40;;;14.50;99.90;;;;;;4436229;32;20065;-64
2021/05/19 08:11:07;;;;;;;0.40;0.40;;;14.50;99.90;;;;;;4435844;32;20061;-63
2021/05/19 08:13:38;;;;;;;0.30;0.30;;;14.50;99.90;;;;;;4444800;32;20468;-64
2021/05/19 08:16:04;;;;;;;0.30;0.30;;;14.70;99.90;;;;;;4444183;32;20057;-64
2021/05/19 08:18:30;;;;;;;0.50;0.50;;;14.80;99.90;;;;;;4438328;32;20086;-63
2021/05/19 08:20:55;;;;;;;0.40;0.40;;;15.00;99.90;;;;;;4443164;32;20639;-64
2021/05/19 08:23:21;;;;;;;0.30;0.30;;;15.10;99.90;;;;;;4443293;32;20084;-64
2021/05/19 08:25:46;;;;;;;3.83;0.82;;;15.20;99.90;;;;;;4434484;32;20081;-64
2021/05/19 08:28:12;;;;;;;0.40;0.40;;;15.10;99.90;;;;;;4442036;32;20121;-64
2021/05/19 08:30:37;;;;;;;0.30;0.30;;;15.10;99.90;;;;;;4437037;32;20065;-64
2021/05/19 08:33:03;;;;;;;0.30;0.30;;;15.10;99.90;;;;;;4440250;32;20493;-64
2021/05/19 08:35:28;;;;;;;0.40;0.40;;;15.20;99.90;;;;;;4438469;32;20069;-64
2021/05/19 08:37:53;;;;;;;0.30;0.30;;;15.30;99.90;;;;;;4434155;32;20080;-64
2021/05/19 08:40:19;;;;;;;0.30;0.30;;;15.20;99.90;;;;;;4432507;32;20156;-64
2021/05/19 08:42:44;;;;;;;0.32;0.32;;;15.00;99.90;;;;;;4433025;32;20073;-64
2021/05/19 08:45:11;;;;;;;0.30;0.30;;;14.80;99.90;;;;;;4434622;32;20092;-64
2021/05/19 08:47:37;;;;;;;0.40;0.40;;;14.90;99.90;;;;;;4430139;32;20080;-64
2021/05/19 08:50:04;;;;;;;0.20;0.20;;;14.80;99.90;;;;;;4440591;32;20085;-63
2021/05/19 08:52:30;;;;;;;0.40;0.40;;;14.80;99.90;;;;;;4437009;32;20631;-64
2021/05/19 08:54:56;;;;;;;0.40;0.40;;;15.10;99.90;;;;;;4438600;32;20069;-64
2021/05/19 08:57:22;;;;;;;0.37;0.37;;;15.40;99.90;;;;;;4442090;32;20533;-64
2021/05/19 08:59:48;;;;;;;0.30;0.30;;;15.40;99.90;;;;;;4440223;32;20065;-64
2021/05/19 09:02:15;;;;;;;0.30;0.30;;;15.10;99.90;;;;;;4435129;32;20494;-64
2021/05/19 09:04:42;;;;;;;0.52;0.52;;;14.80;99.90;;;;;;4431158;32;20117;-64
2021/05/19 09:07:16;;;;;;;0.30;0.30;;;14.80;99.90;;;;;;4435231;32;20081;-64
2021/05/19 09:09:41;;;;;;;2.97;1.58;;;15.10;99.90;;;;;;4441959;32;20073;-64
2021/05/19 09:12:10;;;;;;;0.30;0.30;;;15.20;99.90;;;;;;4441270;32;20073;-63
2021/05/19 09:14:39;;;;;;;0.45;0.40;;;15.20;99.90;;;;;;4432077;32;20121;-64
2021/05/19 09:17:26;;;;;;;0.30;0.30;;;15.40;99.90;;;;;;4438095;32;20077;-64
2021/05/19 09:20:03;;;;;;;0.40;0.40;;;15.20;99.90;;;;;;4439047;32;20073;-64
2021/05/19 09:22:37;;;;;;;0.45;0.45;;;15.30;99.90;;;;;;4424453;32;20057;-64
2021/05/19 09:25:24;;;;;;;1.00;0.70;;;15.60;99.90;;;;;;4411955;32;20553;-64
2021/05/19 09:27:52;;;;;;;0.50;0.50;;;16.00;99.90;;;;;;4431474;32;20066;-64
2021/05/19 09:30:35;;;;;;;0.50;0.50;;;16.00;99.90;;;;;;4429566;32;20082;-63
2021/05/19 09:33:22;;;;;;;0.40;0.40;;;16.10;99.90;;;;;;4427335;32;20136;-63
2021/05/19 09:36:09;;;;;;;0.30;0.30;;;16.40;99.90;;;;;;4432190;32;20232;-63
2021/05/19 09:38:34;;;;;;;0.30;0.30;;;16.50;99.90;;;;;;4434727;32;20073;-63
2021/05/19 09:41:17;;;;;;;0.30;0.30;;;16.60;99.90;;;;;;4431492;32;144135;-63
2021/05/19 09:43:44;;;;;;;5.15;0.77;;;16.50;99.90;;;;;;4440897;32;20571;-63
2021/05/19 09:46:17;;;;;;;0.30;0.30;;;16.30;99.90;;;;;;4439705;32;20073;-63
2021/05/19 09:48:43;;;;;;;0.30;0.30;;;16.40;99.90;;;;;;4439937;32;20081;-63
2021/05/19 09:51:09;;;;;;;0.30;0.30;;;16.40;99.90;;;;;;4441243;32;20094;-64
2021/05/19 09:53:35;;;;;;;8.73;0.62;;;16.40;99.90;;;;;;4442496;32;20259;-63
2021/05/19 09:56:03;;;;;;;0.40;0.40;;;16.70;99.90;;;;;;4437726;32;20519;-64
2021/05/19 09:58:29;;;;;;;3.72;0.47;;;17.00;99.90;;;;;;4438821;32;20503;-63
2021/05/19 10:00:55;;;;;;;0.28;0.28;;;17.10;99.90;;;;;;4438064;32;20448;-64
2021/05/19 10:03:21;;;;;;;0.75;0.40;;;16.70;99.90;;;;;;4441870;32;20080;-64
2021/05/19 10:05:51;;;;;;;0.30;0.30;;;16.70;99.90;;;;;;4438990;32;20188;-64
2021/05/19 10:08:17;;;;;;;0.40;0.40;;;17.00;99.90;;;;;;4441863;32;20061;-64
2021/05/19 10:10:42;;;;;;;0.30;0.30;;;17.20;99.30;;;;;;4442904;32;20086;-64
2021/05/19 10:13:08;;;;;;;0.30;0.30;;;17.30;99.50;;;;;;4439745;32;20105;-64
2021/05/19 10:15:36;;;;;;;0.50;0.50;;;17.60;98.90;;;;;;4434123;32;20587;-64
2021/05/19 10:18:06;;;;;;;0.30;0.30;;;17.80;98.40;;;;;;4437164;32;20065;-66
2021/05/19 10:20:36;;;;;;;0.30;0.30;;;17.90;98.20;;;;;;4439146;32;20053;-63
2021/05/19 10:23:04;;;;;;;0.30;0.30;;;17.80;98.80;;;;;;4434165;32;20077;-64
2021/05/19 10:25:38;;;;;;;0.40;0.40;;;17.40;99.00;;;;;;4434101;32;20061;-63
2021/05/19 10:28:14;;;;;;;0.20;0.20;;;17.10;99.40;;;;;;4431392;32;20089;-63
2021/05/19 10:30:43;;;;;;;0.37;0.37;;;17.30;98.80;;;;;;4436900;32;20057;-64
2021/05/19 10:33:30;;;;;;;0.30;0.30;;;17.40;98.60;;;;;;4438888;32;20139;-64
2021/05/19 10:35:58;;;;;;;0.28;0.28;;;17.20;98.40;;;;;;4434275;32;20060;-63
2021/05/19 10:38:29;;;;;;;0.30;0.30;;;17.00;98.50;;;;;;4428600;32;20466;-64
2021/05/19 10:40:55;;;;;;;;;;;17.30;99.60;;;;;;4432687;32;20073;-64
2021/05/19 10:43:41;;;;;;;0.20;0.20;;;17.80;98.10;;;;;;4432518;32;19963;-64
2021/05/19 10:46:07;;;;;;;0.50;0.50;;;17.60;97.10;;;;;;4438376;32;20193;-64
2021/05/19 10:48:34;;;;;;;0.20;0.20;;;17.80;97.80;;;;;;4437703;32;20427;-64
2021/05/19 10:51:41;;;;;;;0.32;0.32;;;18.20;96.30;;;;;;4436792;32;20053;-64
2021/05/19 10:57:18;;;;;;;0.30;0.30;;;19.00;93.60;;;;;;4429475;32;20121;-64
2021/05/19 11:00:25;;;;;;;0.30;0.30;;;18.80;93.60;;;;;;4435350;32;20128;-64
2021/05/19 11:02:58;;;;;;;0.30;0.25;;;19.10;94.10;;;;;;4442118;32;20680;-62
2021/05/19 11:05:30;;;;;;;0.20;0.20;;;19.40;92.00;;;;;;4439353;32;20926;-64
2021/05/19 11:08:13;;;;;;;0.47;0.28;;;19.20;92.00;;;;;;4433746;32;20525;-64
2021/05/19 11:10:43;;;;;;;0.20;0.20;;;19.60;92.40;;;;;;4436785;32;20152;-65
2021/05/19 11:13:09;;;;;;;0.20;0.20;;;19.80;89.80;;;;;;4437648;32;20119;-64
2021/05/19 11:21:25;;;;;;;0.30;0.30;;;20.10;86.50;;;;;;4433709;32;20101;-64
2021/05/19 11:24:13;;;;;;;0.30;0.30;;;20.40;88.50;;;;;;4437174;32;20058;-64
2021/05/19 11:26:44;;;;;;;0.40;0.40;;;20.90;80.20;;;;;;4431083;32;20407;-64
2021/05/19 11:29:12;;;;;;;0.20;0.20;;;21.30;79.80;;;;;;4437991;32;20076;-65
2021/05/19 11:31:42;;;;;;;0.20;0.20;;;21.30;79.90;;;;;;4442877;32;20093;-65
2021/05/19 11:34:08;;;;;;;0.25;0.25;;;21.10;78.70;;;;;;4441517;32;20096;-64
2021/05/19 11:36:40;;;;;;;0.30;0.30;;;20.80;77.80;;;;;;4423366;32;20065;-65
2021/05/19 11:39:27;;;;;;;0.20;0.20;;;20.90;79.20;;;;;;4438223;32;20081;-65
2021/05/19 11:42:07;;;;;;;0.20;0.20;;;20.60;79.50;;;;;;4438484;32;20089;-65
2021/05/19 11:44:36;;;;;;;0.40;0.40;;;20.60;79.60;;;;;;4440882;32;20557;-64
2021/05/19 11:47:02;;;;;;;9.32;0.43;;;21.10;80.20;;;;;;4436057;32;20093;-64
2021/05/19 11:49:28;;;;;;;0.20;0.20;;;21.30;77.70;;;;;;4429793;32;20547;-64
2021/05/19 11:51:54;;;;;;;0.20;0.20;;;21.00;78.10;;;;;;4434180;32;20102;-64
2021/05/19 11:54:21;;;;;;;0.20;0.20;;;20.80;78.10;;;;;;4430715;32;20498;-64
2021/05/19 11:56:49;;;;;;;0.20;0.20;;;20.60;79.10;;;;;;4417222;32;20140;-64
2021/05/19 11:59:21;;;;;;;0.20;0.20;;;20.40;81.80;;;;;;4429177;32;20077;-63
2021/05/19 12:01:59;;;;;;;0.20;0.20;;;20.30;81.90;;;;;;4422441;32;20549;-64
2021/05/19 12:04:28;;;;;;;0.25;0.22;;;19.90;81.40;;;;;;4436259;32;20621;-65
2021/05/19 12:06:53;;;;;;;0.20;0.20;;;19.60;83.00;;;;;;4431366;32;20558;-64
2021/05/19 12:09:21;;;;;;;0.20;0.20;;;20.00;83.30;;;;;;4433195;32;20080;-63
2021/05/19 12:11:47;;;;;;;0.25;0.25;;;20.40;81.70;;;;;;4431888;32;20146;-64
2021/05/19 12:14:13;;;;;;;0.30;0.30;;;19.90;79.80;;;;;;4435329;32;20057;-65
2021/05/19 12:16:43;;;;;;;0.30;0.30;;;19.40;84.20;;;;;;4440788;32;20061;-65
2021/05/19 12:19:12;;;;;;;0.30;0.30;;;19.30;84.30;;;;;;4438438;32;20158;-64
2021/05/19 12:21:41;;;;;;;0.22;0.22;;;19.10;83.30;;;;;;4437242;32;20096;-65
2021/05/19 12:24:08;;;;;;;0.20;0.20;;;19.60;83.60;;;;;;4440452;32;20049;-65
2021/05/19 12:26:35;;;;;;;0.20;0.20;;;19.80;83.00;;;;;;4433539;32;20552;-65
2021/05/19 12:29:01;;;;;;;0.20;0.20;;;19.90;81.70;;;;;;4439915;32;20073;-65
2021/05/19 12:31:29;;;;;;;0.20;0.20;;;19.70;80.40;;;;;;4438659;32;20538;-63
2021/05/19 12:33:55;;;;;;;0.20;0.20;;;20.40;78.10;;;;;;4440105;32;20152;-64
2021/05/19 12:36:40;;;;;;;0.20;0.20;;;20.20;77.50;;;;;;4440525;32;20143;-64
2021/05/19 12:39:07;;;;;;;0.20;0.20;;;20.90;78.50;;;;;;4444185;32;20098;-65
2021/05/19 12:41:41;;;;;;;0.10;0.10;;;21.20;77.60;;;;;;4426750;32;20193;-65
2021/05/19 12:44:07;;;;;;;0.20;0.20;;;22.10;75.40;;;;;;4429700;32;20069;-65
2021/05/19 12:46:33;;;;;;;0.13;0.13;;;22.90;71.60;;;;;;4438582;32;20064;-64
2021/05/19 12:49:05;;;;;;;0.10;0.10;;;23.10;70.90;;;;;;4438740;32;20073;-65
2021/05/19 12:51:47;;;;;;;0.20;0.20;;;23.60;66.80;;;;;;4436653;32;20077;-65
2021/05/19 12:54:18;;;;;;;0.10;0.10;;;24.00;64.60;;;;;;4440966;32;20565;-64
2021/05/19 12:56:43;;;;;;;0.00;0.00;;;24.00;65.50;;;;;;4425653;32;20155;-64
2021/05/19 12:59:09;;;;;;;0.20;0.20;;;23.50;64.80;;;;;;4444040;32;20100;-64